createdAt,value
2019-03-03T00:00:24.747Z,8.80
2019-03-03T00:03:00.343Z,8.80
2019-03-03T00:05:35.723Z,8.80
2019-03-03T00:08:12.281Z,8.80
2019-03-03T00:10:48.126Z,8.80
2019-03-03T00:13:27.243Z,8.80
2019-03-03T00:16:01.040Z,8.80
2019-03-03T00:18:35.731Z,8.80
2019-03-03T00:21:17.087Z,8.90
2019-03-03T00:23:53.311Z,8.90
2019-03-03T00:30:10.140Z,8.80
2019-03-03T00:32:50.092Z,8.80
2019-03-03T00:35:32.498Z,8.80
2019-03-03T00:38:25.348Z,8.90
2019-03-03T00:41:23.944Z,8.90
2019-03-03T00:44:19.448Z,8.80
2019-03-03T00:47:12.304Z,8.80
2019-03-03T00:50:07.198Z,8.80
2019-03-03T00:52:52.731Z,8.70
2019-03-03T00:55:55.363Z,8.70
2019-03-03T01:02:19.152Z,8.60
2019-03-03T01:05:06.063Z,8.60
2019-03-03T01:08:17.959Z,8.50
2019-03-03T01:11:19.743Z,8.50
2019-03-03T01:14:33.371Z,8.40
2019-03-03T01:24:18.744Z,8.40
2019-03-03T01:30:42.482Z,8.40
2019-03-03T01:36:36.588Z,8.40
2019-03-03T01:42:40.295Z,8.30
2019-03-03T01:48:19.443Z,8.20
2019-03-03T01:54:30.347Z,8.30
2019-03-03T01:57:05.171Z,8.10
2019-03-03T01:59:43.079Z,8.10
2019-03-03T02:02:17.771Z,8.10
2019-03-03T02:04:56.755Z,8.00
2019-03-03T02:17:55.262Z,7.70
2019-03-03T02:20:30.297Z,7.70
2019-03-03T02:26:46.334Z,7.70
2019-03-03T02:32:51.474Z,7.90
2019-03-03T02:35:26.769Z,7.90
2019-03-03T02:38:06.249Z,7.90
2019-03-03T02:44:12.254Z,7.90
2019-03-03T02:50:17.378Z,7.80
2019-03-03T02:52:54.260Z,7.80
2019-03-03T02:55:32.366Z,7.90
2019-03-03T02:58:15.384Z,7.90
2019-03-03T03:01:00.658Z,7.80
2019-03-03T03:07:20.299Z,7.80
2019-03-03T03:10:04.410Z,7.80
2019-03-03T03:13:01.793Z,7.80
2019-03-03T03:15:50.118Z,7.70
2019-03-03T03:18:42.155Z,7.60
2019-03-03T03:21:29.466Z,7.50
2019-03-03T03:24:16.582Z,7.50
2019-03-03T03:27:03.782Z,7.50
2019-03-03T03:30:12.590Z,7.40
2019-03-03T03:32:56.355Z,7.30
2019-03-03T03:35:38.796Z,7.10
2019-03-03T03:38:25.471Z,7.00
2019-03-03T03:41:20.578Z,6.90
2019-03-03T03:44:13.224Z,6.90
2019-03-03T03:47:18.365Z,6.90
2019-03-03T03:54:00.857Z,6.80
2019-03-03T04:00:16.404Z,6.70
2019-03-03T04:03:11.703Z,6.70
2019-03-03T04:06:03.822Z,6.70
2019-03-03T04:09:03.671Z,6.60
2019-03-03T04:15:42.713Z,6.80
2019-03-03T04:22:04.257Z,6.60
2019-03-03T04:28:41.352Z,6.60
2019-03-03T04:31:26.218Z,6.40
2019-03-03T04:41:11.122Z,6.40
2019-03-03T04:44:13.608Z,6.40
2019-03-03T04:50:53.782Z,6.30
2019-03-03T04:53:57.833Z,6.30
2019-03-03T04:56:53.411Z,6.40
2019-03-03T05:00:06.329Z,6.40
2019-03-03T05:02:58.156Z,6.50
2019-03-03T05:05:56.332Z,6.50
2019-03-03T05:08:42.448Z,6.50
2019-03-03T05:11:58.235Z,6.60
2019-03-03T05:14:37.827Z,6.60
2019-03-03T05:17:19.135Z,6.60
2019-03-03T05:20:00.828Z,6.50
2019-03-03T05:22:38.231Z,6.50
2019-03-03T05:25:19.031Z,6.50
2019-03-03T05:28:01.183Z,6.50
2019-03-03T05:30:41.967Z,6.60
2019-03-03T05:33:17.409Z,6.50
2019-03-03T05:35:59.192Z,6.40
2019-03-03T05:38:39.863Z,6.30
2019-03-03T05:41:17.238Z,6.10
2019-03-03T05:43:53.706Z,6.00
2019-03-03T05:46:36.737Z,6.00
2019-03-03T05:49:12.375Z,5.90
2019-03-03T05:51:47.856Z,5.90
2019-03-03T05:54:22.035Z,5.90
2019-03-03T05:56:58.294Z,5.90
2019-03-03T05:59:32.885Z,6.00
2019-03-03T06:02:21.473Z,5.90
2019-03-03T06:04:57.745Z,5.80
2019-03-03T06:07:32.835Z,5.70
2019-03-03T06:10:11.282Z,5.70
2019-03-03T06:13:08.030Z,5.80
2019-03-03T06:15:46.934Z,5.70
2019-03-03T06:18:22.389Z,5.90
2019-03-03T06:20:58.037Z,5.90
2019-03-03T06:23:36.845Z,5.80
2019-03-03T06:26:19.346Z,5.70
2019-03-03T06:28:54.405Z,5.70
2019-03-03T06:31:30.474Z,5.80
2019-03-03T06:34:08.979Z,5.90
2019-03-03T06:36:55.702Z,5.80
2019-03-03T06:39:38.911Z,5.70
2019-03-03T06:42:18.241Z,5.80
2019-03-03T06:44:57.183Z,5.80
2019-03-03T06:47:34.248Z,5.80
2019-03-03T06:50:08.053Z,5.90
2019-03-03T06:52:44.114Z,5.80
2019-03-03T06:55:18.569Z,5.80
2019-03-03T06:58:00.594Z,5.80
2019-03-03T07:00:34.586Z,6.00
2019-03-03T07:03:17.587Z,6.00
2019-03-03T07:05:54.433Z,6.20
2019-03-03T07:08:30.559Z,6.30
2019-03-03T07:11:09.995Z,6.40
2019-03-03T07:13:45.474Z,6.50
2019-03-03T07:16:19.564Z,6.60
2019-03-03T07:19:03.725Z,6.70
2019-03-03T07:21:43.283Z,6.60
2019-03-03T07:24:25.043Z,6.80
2019-03-03T07:27:06.041Z,6.90
2019-03-03T07:29:45.818Z,6.90
2019-03-03T07:32:26.424Z,6.80
2019-03-03T07:35:05.780Z,6.80
2019-03-03T07:37:46.755Z,6.80
2019-03-03T07:40:25.284Z,6.90
2019-03-03T07:43:01.124Z,6.90
2019-03-03T07:45:42.503Z,6.80
2019-03-03T07:48:19.477Z,6.60
2019-03-03T07:51:01.201Z,6.60
2019-03-03T07:53:38.131Z,6.60
2019-03-03T07:56:15.172Z,6.70
2019-03-03T07:58:51.600Z,6.80
2019-03-03T08:01:32.484Z,6.80
2019-03-03T08:04:08.281Z,6.80
2019-03-03T08:06:54.928Z,6.90
2019-03-03T08:09:34.474Z,7.00
2019-03-03T08:12:13.186Z,7.20
2019-03-03T08:14:51.913Z,7.30
2019-03-03T08:17:27.591Z,7.30
2019-03-03T08:20:06.069Z,7.50
2019-03-03T08:22:45.199Z,7.60
2019-03-03T08:25:21.440Z,7.60
2019-03-03T08:27:59.772Z,7.60
2019-03-03T08:30:37.378Z,7.70
2019-03-03T08:33:15.994Z,7.90
2019-03-03T08:35:56.956Z,8.00
2019-03-03T08:38:36.277Z,8.10
2019-03-03T08:41:14.005Z,8.10
2019-03-03T08:44:01.671Z,8.10
2019-03-03T08:47:05.219Z,8.20
2019-03-03T08:50:30.466Z,8.20
2019-03-03T08:53:25.938Z,8.30
2019-03-03T08:56:21.496Z,8.20
2019-03-03T08:59:24.338Z,8.00
2019-03-03T09:02:35.465Z,8.00
2019-03-03T09:05:44.038Z,8.00
2019-03-03T09:08:41.401Z,8.00
2019-03-03T09:11:30.356Z,8.00
2019-03-03T09:14:29.964Z,8.00
2019-03-03T09:17:25.070Z,8.20
2019-03-03T09:20:33.970Z,8.00
2019-03-03T09:23:29.818Z,8.10
2019-03-03T09:26:20.008Z,8.20
2019-03-03T09:29:07.959Z,8.20
2019-03-03T09:32:08.168Z,8.30
2019-03-03T09:35:10.063Z,8.50
2019-03-03T09:38:09.036Z,8.80
2019-03-03T09:40:58.125Z,8.80
2019-03-03T09:43:52.692Z,9.00
2019-03-03T09:53:41.686Z,9.80
2019-03-03T09:56:38.423Z,9.80
2019-03-03T09:59:57.083Z,9.90
2019-03-03T10:03:06.113Z,10.10
2019-03-03T10:09:51.001Z,10.40
2019-03-03T10:16:30.215Z,10.70
2019-03-03T10:19:35.089Z,10.80
2019-03-03T10:26:21.482Z,10.90
2019-03-03T10:32:59.340Z,11.20
2019-03-03T10:36:11.037Z,11.30
2019-03-03T10:42:53.742Z,11.30
2019-03-03T10:49:34.060Z,11.40
2019-03-03T10:52:15.863Z,11.50
2019-03-03T10:55:27.742Z,11.60
2019-03-03T10:58:22.034Z,11.60
2019-03-03T11:05:01.191Z,11.60
2019-03-03T11:11:26.226Z,11.50
2019-03-03T11:14:36.066Z,11.70
2019-03-03T11:21:26.490Z,12.00
2019-03-03T11:27:57.243Z,12.30
2019-03-03T11:31:25.517Z,12.30
2019-03-03T11:37:24.946Z,12.40
2019-03-03T11:43:52.531Z,12.40
2019-03-03T11:46:55.524Z,12.50
2019-03-03T11:49:51.767Z,12.60
2019-03-03T12:06:12.034Z,12.70
2019-03-03T12:09:12.444Z,12.50
2019-03-03T12:12:15.129Z,12.40
2019-03-03T12:18:53.060Z,12.30
2019-03-03T12:21:52.268Z,12.50
2019-03-03T12:24:50.019Z,12.30
2019-03-03T12:27:51.228Z,12.40
2019-03-03T12:30:45.143Z,12.50
2019-03-03T12:33:43.561Z,12.60
2019-03-03T12:43:38.548Z,12.70
2019-03-03T12:50:36.390Z,13.10
2019-03-03T12:53:49.187Z,13.20
2019-03-03T12:56:54.561Z,13.20
2019-03-03T13:06:46.549Z,13.20
2019-03-03T13:09:59.859Z,13.30
2019-03-03T13:12:55.562Z,13.40
2019-03-03T13:15:48.918Z,13.50
2019-03-03T13:18:53.036Z,13.60
2019-03-03T13:25:17.091Z,13.90
2019-03-03T13:28:12.126Z,14.10
2019-03-03T13:31:09.895Z,14.10
2019-03-03T13:34:03.977Z,14.10
2019-03-03T13:40:18.351Z,14.20
2019-03-03T13:43:09.613Z,14.00
2019-03-03T13:45:51.148Z,14.00
2019-03-03T13:48:39.494Z,14.00
2019-03-03T13:51:19.049Z,14.10
2019-03-03T13:54:06.680Z,14.20
2019-03-03T13:56:43.446Z,14.40
2019-03-03T13:59:21.618Z,14.40
2019-03-03T14:02:10.299Z,14.40
2019-03-03T14:04:49.224Z,14.30
2019-03-03T14:07:29.376Z,14.30
2019-03-03T14:10:11.168Z,14.30
2019-03-03T14:13:01.152Z,14.40
2019-03-03T14:15:42.128Z,14.30
2019-03-03T14:18:24.631Z,14.20
2019-03-03T14:21:03.457Z,14.20
2019-03-03T14:23:39.129Z,14.20
2019-03-03T14:26:23.454Z,14.30
2019-03-03T14:28:59.212Z,14.40
2019-03-03T14:31:38.131Z,14.40
2019-03-03T14:34:24.236Z,14.40
2019-03-03T14:37:03.271Z,14.30
2019-03-03T14:39:53.350Z,14.40
2019-03-03T14:42:36.359Z,14.30
2019-03-03T14:45:33.315Z,14.40
2019-03-03T14:48:22.623Z,14.30
2019-03-03T14:51:10.621Z,13.90
2019-03-03T14:53:58.148Z,13.70
2019-03-03T14:56:42.759Z,13.40
2019-03-03T14:59:33.227Z,13.30
2019-03-03T15:05:46.132Z,13.30
2019-03-03T15:08:29.574Z,13.30
2019-03-03T15:11:06.251Z,13.40
2019-03-03T15:13:45.158Z,13.50
2019-03-03T15:16:34.124Z,13.40
2019-03-03T15:22:41.120Z,13.40
2019-03-03T15:25:22.502Z,13.20
2019-03-03T15:28:40.132Z,13.20
2019-03-03T15:31:18.240Z,13.00
2019-03-03T15:37:25.255Z,12.90
2019-03-03T15:43:39.655Z,12.80
2019-03-03T15:46:18.646Z,12.80
2019-03-03T15:49:07.496Z,12.80
2019-03-03T15:51:52.158Z,12.90
2019-03-03T15:54:32.639Z,12.90
2019-03-03T15:57:09.390Z,12.80
2019-03-03T16:00:02.064Z,12.90
2019-03-03T16:03:03.504Z,12.90
2019-03-03T16:05:49.178Z,12.80
2019-03-03T16:08:37.531Z,12.50
2019-03-03T16:11:25.693Z,12.30
2019-03-03T16:13:56.707Z,12.30
2019-03-03T16:16:35.941Z,12.20
2019-03-03T16:19:13.439Z,12.10
2019-03-03T16:22:02.535Z,12.10
2019-03-03T16:24:41.100Z,11.90
2019-03-03T16:27:17.290Z,11.90
2019-03-03T16:29:55.586Z,11.90
2019-03-03T16:32:37.979Z,12.00
2019-03-03T16:35:15.166Z,12.00
2019-03-03T16:37:54.923Z,12.10
2019-03-03T16:40:39.477Z,12.00
2019-03-03T16:43:19.725Z,11.90
2019-03-03T16:49:18.537Z,11.80
2019-03-03T16:55:15.700Z,11.70
2019-03-03T16:57:58.942Z,11.60
2019-03-03T17:00:45.943Z,11.50
2019-03-03T17:07:09.739Z,11.50
2019-03-03T17:13:29.984Z,11.40
2019-03-03T17:16:59.562Z,11.30
2019-03-03T17:23:31.548Z,11.20
2019-03-03T17:29:43.480Z,11.20
2019-03-03T17:32:29.569Z,11.20
2019-03-03T17:35:09.976Z,11.20
2019-03-03T17:38:00.875Z,11.20
2019-03-03T17:40:44.555Z,11.20
2019-03-03T17:47:16.755Z,11.20
2019-03-03T17:49:57.931Z,11.10
2019-03-03T17:56:02.471Z,11.00
2019-03-03T18:02:13.081Z,10.90
2019-03-03T18:04:52.979Z,10.80
2019-03-03T18:07:33.286Z,10.80
2019-03-03T18:10:21.606Z,10.70
2019-03-03T18:13:02.579Z,10.60
2019-03-03T18:15:43.554Z,10.50
2019-03-03T18:18:23.501Z,10.50
2019-03-03T18:21:01.614Z,10.50
2019-03-03T18:23:41.761Z,10.40
2019-03-03T18:26:29.524Z,10.50
2019-03-03T18:29:09.859Z,10.50
2019-03-03T18:31:54.179Z,10.40
2019-03-03T18:34:42.666Z,10.30
2019-03-03T18:37:37.126Z,10.20
2019-03-03T18:40:13.406Z,10.10
2019-03-03T18:43:01.103Z,10.00
2019-03-03T18:45:35.992Z,9.90
2019-03-03T18:48:11.616Z,9.90
2019-03-03T18:51:01.796Z,9.90
2019-03-03T18:53:40.524Z,9.80
2019-03-03T18:56:20.467Z,9.80
2019-03-03T18:58:58.598Z,9.80
2019-03-03T19:01:36.483Z,9.70
2019-03-03T19:04:12.532Z,9.80
2019-03-03T19:06:57.400Z,9.70
2019-03-03T19:09:34.477Z,9.70
2019-03-03T19:12:13.195Z,9.60
2019-03-03T19:14:52.531Z,9.60
2019-03-03T19:17:31.471Z,9.60
2019-03-03T19:20:17.754Z,9.60
2019-03-03T19:22:59.561Z,9.60
2019-03-03T19:25:43.588Z,9.50
2019-03-03T19:28:31.284Z,9.50
2019-03-03T19:31:08.210Z,9.50
2019-03-03T19:33:50.407Z,9.50
2019-03-03T19:36:27.891Z,9.50
2019-03-03T19:39:07.430Z,9.50
2019-03-03T19:41:46.568Z,9.60
2019-03-03T19:44:35.125Z,9.80
2019-03-03T19:47:07.698Z,9.90
2019-03-03T19:49:44.007Z,10.00
2019-03-03T19:52:20.622Z,9.90
2019-03-03T19:55:01.017Z,9.90
2019-03-03T19:57:39.510Z,9.80
2019-03-03T20:00:23.540Z,9.90
2019-03-03T20:03:14.767Z,9.90
2019-03-03T20:05:54.997Z,9.90
2019-03-03T20:15:09.301Z,9.50
2019-03-03T20:17:54.570Z,9.30
2019-03-03T20:20:34.927Z,9.30
2019-03-03T20:23:13.852Z,9.10
2019-03-03T20:25:55.659Z,9.10
2019-03-03T20:28:34.046Z,9.10
2019-03-03T20:31:12.473Z,9.10
2019-03-03T20:33:58.614Z,9.10
2019-03-03T20:36:39.047Z,9.00
2019-03-03T20:39:35.462Z,9.10
2019-03-03T20:42:17.464Z,9.10
2019-03-03T20:45:10.322Z,9.10
2019-03-03T20:47:49.451Z,9.10
2019-03-03T20:50:29.599Z,9.10
2019-03-03T20:53:11.793Z,9.00
2019-03-03T20:59:33.085Z,9.00
2019-03-03T21:02:17.802Z,9.00
2019-03-03T21:04:57.535Z,9.00
2019-03-03T21:07:50.980Z,9.00
2019-03-03T21:10:26.656Z,9.00
2019-03-03T21:13:08.091Z,9.00
2019-03-03T21:15:46.555Z,9.00
2019-03-03T21:18:24.664Z,9.00
2019-03-03T21:21:22.161Z,9.00
2019-03-03T21:24:02.169Z,9.10
2019-03-03T21:26:48.458Z,9.10
2019-03-03T21:33:18.404Z,8.80
2019-03-03T21:35:55.933Z,8.70
2019-03-03T21:38:37.679Z,8.80
2019-03-03T21:41:17.545Z,8.80
2019-03-03T21:43:54.709Z,8.80
2019-03-03T21:46:32.404Z,8.80
2019-03-03T21:49:08.678Z,8.90
2019-03-03T21:51:51.895Z,8.90
2019-03-03T21:54:47.622Z,8.90
2019-03-03T21:57:23.679Z,8.80
2019-03-03T22:00:00.547Z,8.70
2019-03-03T22:02:38.878Z,8.80
2019-03-03T22:05:16.553Z,8.80
2019-03-03T22:07:53.632Z,8.80
2019-03-03T22:10:35.177Z,8.80
2019-03-03T22:13:18.572Z,8.80
2019-03-03T22:15:54.707Z,8.70
2019-03-03T22:18:35.680Z,8.70
2019-03-03T22:21:12.209Z,8.70
2019-03-03T22:23:58.463Z,8.80
2019-03-03T22:26:35.528Z,8.80
2019-03-03T22:29:17.305Z,8.70
2019-03-03T22:31:56.235Z,8.80
2019-03-03T22:34:39.067Z,8.80
2019-03-03T22:37:18.597Z,8.80
2019-03-03T22:39:57.721Z,8.80
2019-03-03T22:42:37.193Z,8.70
2019-03-03T22:45:19.297Z,8.70
2019-03-03T22:47:57.998Z,8.70
2019-03-03T22:50:41.216Z,8.70
2019-03-03T22:53:21.992Z,8.70
2019-03-03T22:56:04.812Z,8.70
2019-03-03T22:58:42.901Z,8.70
2019-03-03T23:01:28.441Z,8.60
2019-03-03T23:04:53.498Z,8.50
2019-03-03T23:08:18.468Z,8.50
2019-03-03T23:11:35.209Z,8.50
2019-03-03T23:18:40.168Z,8.20
2019-03-03T23:21:42.061Z,8.10
2019-03-03T23:25:08.258Z,8.10
2019-03-03T23:27:44.651Z,7.90
2019-03-03T23:30:30.652Z,7.80
2019-03-03T23:33:06.476Z,7.80
2019-03-03T23:35:42.520Z,7.80
2019-03-03T23:38:18.177Z,7.80
2019-03-03T23:40:53.202Z,7.90
2019-03-03T23:43:36.222Z,8.00
2019-03-03T23:46:15.969Z,7.80
2019-03-03T23:48:51.614Z,7.80
2019-03-03T23:51:29.313Z,7.80
2019-03-03T23:54:08.078Z,7.70
2019-03-03T23:56:50.036Z,7.80
2019-03-03T23:59:31.419Z,7.80
